SCCY/GXQ METAR and TAF weather

Enter ICAO airport designator
Station Type Date Time Source
SCCY METAR 2020/07/10 23:00 UTC NOAA

SCCY 102300Z 06010KT 2000 -SN BR SCT010 OVC020 01/00 Q0998


Station Type Date Time Source
SCCY Decoded METAR 2020/07/10 23:00 UTC NOAA

Coyhaique, Chile (SCCY) 45-35S 072-07W
Jul 10, 2020 - 07:00 PM EDT / 2020.07.10 2300 UTC
Wind: from the ENE (060 degrees) at 12 MPH (10 KT):0
Visibility: 1 mile(s):0
Sky conditions: overcast
Weather: light snow; mist
Temperature: 33 F (1 C)
Windchill: 24 F (-4 C):1
Dew Point: 32 F (0 C)
Relative Humidity: 93%
Pressure (altimeter): 29.47 in. Hg (0998 hPa)
ob: SCCY 102300Z 06010KT 2000 -SN BR SCT010 OVC020 01/00 Q0998
cycle: 23

Station Type Date Time Source
SCCY TAF 2020/07/10 12:00 UTC NOAA

TAF SCCY 101101Z 1012/1100 VRB02KT 9999 BKN040 TN02/1013Z TX03/1019Z
BECMG 1016/1018 8000 -SHRASN

Example: see airport list